sensor_id;sensor_type;location;lat;lon;timestamp;P1;durP1;ratioP1;P2;durP2;ratioP2
18973;SDS011;9621;48.690;9.466;2023-03-01T00:00:38;36.30;;;18.40;;
18973;SDS011;9621;48.690;9.466;2023-03-01T00:03:06;32.87;;;16.77;;
18973;SDS011;9621;48.690;9.466;2023-03-01T00:05:42;31.90;;;18.33;;
18973;SDS011;9621;48.690;9.466;2023-03-01T00:08:14;29.13;;;16.57;;
18973;SDS011;9621;48.690;9.466;2023-03-01T00:10:42;32.33;;;16.87;;
18973;SDS011;9621;48.690;9.466;2023-03-01T00:13:11;35.33;;;20.47;;
18973;SDS011;9621;48.690;9.466;2023-03-01T00:16:35;33.57;;;19.50;;
18973;SDS011;9621;48.690;9.466;2023-03-01T00:19:04;36.80;;;18.90;;
18973;SDS011;9621;48.690;9.466;2023-03-01T00:21:32;29.57;;;17.27;;
18973;SDS011;9621;48.690;9.466;2023-03-01T00:24:02;34.73;;;18.77;;
18973;SDS011;9621;48.690;9.466;2023-03-01T00:26:31;35.27;;;18.17;;
18973;SDS011;9621;48.690;9.466;2023-03-01T00:29:02;35.07;;;17.53;;
18973;SDS011;9621;48.690;9.466;2023-03-01T00:31:40;31.30;;;17.73;;
18973;SDS011;9621;48.690;9.466;2023-03-01T00:34:29;31.23;;;17.53;;
18973;SDS011;9621;48.690;9.466;2023-03-01T00:36:57;33.00;;;17.93;;
18973;SDS011;9621;48.690;9.466;2023-03-01T00:39:30;33.10;;;17.87;;
18973;SDS011;9621;48.690;9.466;2023-03-01T00:42:01;29.60;;;17.10;;
18973;SDS011;9621;48.690;9.466;2023-03-01T00:44:32;33.00;;;17.77;;
18973;SDS011;9621;48.690;9.466;2023-03-01T00:47:10;32.00;;;17.73;;
18973;SDS011;9621;48.690;9.466;2023-03-01T00:50:12;33.33;;;17.20;;
18973;SDS011;9621;48.690;9.466;2023-03-01T00:55:34;34.87;;;17.47;;
18973;SDS011;9621;48.690;9.466;2023-03-01T00:58:09;34.27;;;17.60;;
18973;SDS011;9621;48.690;9.466;2023-03-01T01:00:38;31.70;;;18.20;;
18973;SDS011;9621;48.690;9.466;2023-03-01T01:03:21;33.80;;;17.83;;
18973;SDS011;9621;48.690;9.466;2023-03-01T01:05:53;38.47;;;17.83;;
18973;SDS011;9621;48.690;9.466;2023-03-01T01:08:20;34.07;;;18.10;;
18973;SDS011;9621;48.690;9.466;2023-03-01T01:10:59;31.10;;;17.53;;
18973;SDS011;9621;48.690;9.466;2023-03-01T01:13:34;33.70;;;17.83;;
18973;SDS011;9621;48.690;9.466;2023-03-01T01:16:08;36.17;;;18.07;;
18973;SDS011;9621;48.690;9.466;2023-03-01T01:21:24;33.40;;;17.20;;
18973;SDS011;9621;48.690;9.466;2023-03-01T01:24:06;30.77;;;17.43;;
18973;SDS011;9621;48.690;9.466;2023-03-01T01:26:42;35.60;;;18.33;;
18973;SDS011;9621;48.690;9.466;2023-03-01T01:29:24;32.47;;;18.37;;
18973;SDS011;9621;48.690;9.466;2023-03-01T01:31:56;39.17;;;18.73;;
18973;SDS011;9621;48.690;9.466;2023-03-01T01:34:24;32.47;;;19.17;;
18973;SDS011;9621;48.690;9.466;2023-03-01T01:36:54;33.90;;;18.00;;
18973;SDS011;9621;48.690;9.466;2023-03-01T01:39:27;35.97;;;17.80;;
18973;SDS011;9621;48.690;9.466;2023-03-01T01:41:58;37.10;;;18.30;;
18973;SDS011;9621;48.690;9.466;2023-03-01T01:44:30;34.50;;;19.30;;
18973;SDS011;9621;48.690;9.466;2023-03-01T01:47:01;34.63;;;18.97;;
18973;SDS011;9621;48.690;9.466;2023-03-01T01:49:42;33.63;;;19.10;;
18973;SDS011;9621;48.690;9.466;2023-03-01T01:52:21;36.13;;;19.37;;
18973;SDS011;9621;48.690;9.466;2023-03-01T01:55:03;31.07;;;17.67;;
18973;SDS011;9621;48.690;9.466;2023-03-01T01:57:44;36.03;;;19.50;;
18973;SDS011;9621;48.690;9.466;2023-03-01T02:00:20;33.30;;;19.57;;
18973;SDS011;9621;48.690;9.466;2023-03-01T02:02:54;34.00;;;18.67;;
18973;SDS011;9621;48.690;9.466;2023-03-01T02:05:47;35.23;;;18.40;;
18973;SDS011;9621;48.690;9.466;2023-03-01T02:08:37;30.63;;;17.57;;
18973;SDS011;9621;48.690;9.466;2023-03-01T02:11:13;28.00;;;17.47;;
18973;SDS011;9621;48.690;9.466;2023-03-01T02:13:43;37.07;;;18.73;;
18973;SDS011;9621;48.690;9.466;2023-03-01T02:16:16;35.07;;;18.60;;
18973;SDS011;9621;48.690;9.466;2023-03-01T02:18:49;34.53;;;19.30;;
18973;SDS011;9621;48.690;9.466;2023-03-01T02:24:15;34.07;;;18.40;;
18973;SDS011;9621;48.690;9.466;2023-03-01T02:26:56;34.60;;;17.93;;
18973;SDS011;9621;48.690;9.466;2023-03-01T02:29:37;34.17;;;18.93;;
18973;SDS011;9621;48.690;9.466;2023-03-01T02:32:14;34.53;;;19.20;;
18973;SDS011;9621;48.690;9.466;2023-03-01T02:34:50;35.57;;;18.63;;
18973;SDS011;9621;48.690;9.466;2023-03-01T02:37:18;36.53;;;19.97;;
18973;SDS011;9621;48.690;9.466;2023-03-01T02:39:53;34.53;;;19.43;;
18973;SDS011;9621;48.690;9.466;2023-03-01T02:42:30;33.90;;;19.40;;
18973;SDS011;9621;48.690;9.466;2023-03-01T02:45:05;34.03;;;20.27;;
18973;SDS011;9621;48.690;9.466;2023-03-01T02:47:33;37.83;;;20.70;;
18973;SDS011;9621;48.690;9.466;2023-03-01T02:50:00;37.70;;;19.77;;
18973;SDS011;9621;48.690;9.466;2023-03-01T02:52:30;33.60;;;19.40;;
18973;SDS011;9621;48.690;9.466;2023-03-01T02:55:09;36.67;;;19.53;;
18973;SDS011;9621;48.690;9.466;2023-03-01T02:57:40;35.90;;;19.70;;
18973;SDS011;9621;48.690;9.466;2023-03-01T03:00:10;32.23;;;18.17;;
18973;SDS011;9621;48.690;9.466;2023-03-01T03:02:47;34.63;;;20.17;;
18973;SDS011;9621;48.690;9.466;2023-03-01T03:05:18;37.63;;;19.77;;
18973;SDS011;9621;48.690;9.466;2023-03-01T03:07:50;34.33;;;20.70;;
18973;SDS011;9621;48.690;9.466;2023-03-01T03:10:19;36.93;;;20.67;;
18973;SDS011;9621;48.690;9.466;2023-03-01T03:12:51;39.00;;;20.47;;
18973;SDS011;9621;48.690;9.466;2023-03-01T03:15:24;37.03;;;21.10;;
18973;SDS011;9621;48.690;9.466;2023-03-01T03:17:55;38.67;;;20.80;;
18973;SDS011;9621;48.690;9.466;2023-03-01T03:20:24;36.73;;;20.90;;
18973;SDS011;9621;48.690;9.466;2023-03-01T03:22:57;33.53;;;19.20;;
18973;SDS011;9621;48.690;9.466;2023-03-01T03:25:28;40.57;;;20.50;;
18973;SDS011;9621;48.690;9.466;2023-03-01T03:27:56;34.90;;;21.03;;
18973;SDS011;9621;48.690;9.466;2023-03-01T03:30:26;35.83;;;20.00;;
18973;SDS011;9621;48.690;9.466;2023-03-01T03:32:57;39.20;;;22.20;;
18973;SDS011;9621;48.690;9.466;2023-03-01T03:35:26;37.63;;;20.20;;
18973;SDS011;9621;48.690;9.466;2023-03-01T03:37:55;37.53;;;20.13;;
18973;SDS011;9621;48.690;9.466;2023-03-01T03:40:32;36.47;;;21.10;;
18973;SDS011;9621;48.690;9.466;2023-03-01T03:43:00;38.23;;;20.57;;
18973;SDS011;9621;48.690;9.466;2023-03-01T03:45:29;38.83;;;21.63;;
18973;SDS011;9621;48.690;9.466;2023-03-01T03:47:58;37.67;;;21.07;;
18973;SDS011;9621;48.690;9.466;2023-03-01T03:50:25;41.93;;;21.73;;
18973;SDS011;9621;48.690;9.466;2023-03-01T03:52:52;36.27;;;22.13;;
18973;SDS011;9621;48.690;9.466;2023-03-01T03:55:19;38.40;;;21.37;;
18973;SDS011;9621;48.690;9.466;2023-03-01T03:57:50;40.33;;;21.27;;
18973;SDS011;9621;48.690;9.466;2023-03-01T04:00:19;41.57;;;20.97;;
18973;SDS011;9621;48.690;9.466;2023-03-01T04:02:53;40.70;;;22.00;;
18973;SDS011;9621;48.690;9.466;2023-03-01T04:05:21;36.63;;;20.70;;
18973;SDS011;9621;48.690;9.466;2023-03-01T04:07:58;39.07;;;21.30;;
18973;SDS011;9621;48.690;9.466;2023-03-01T04:10:32;36.97;;;20.77;;
18973;SDS011;9621;48.690;9.466;2023-03-01T04:13:01;37.87;;;20.93;;
18973;SDS011;9621;48.690;9.466;2023-03-01T04:15:56;35.90;;;21.20;;
18973;SDS011;9621;48.690;9.466;2023-03-01T04:18:23;40.27;;;21.40;;
18973;SDS011;9621;48.690;9.466;2023-03-01T04:20:54;42.80;;;20.87;;
18973;SDS011;9621;48.690;9.466;2023-03-01T04:23:22;41.37;;;22.00;;
18973;SDS011;9621;48.690;9.466;2023-03-01T04:25:50;43.13;;;20.70;;
18973;SDS011;9621;48.690;9.466;2023-03-01T04:28:20;39.80;;;21.67;;
18973;SDS011;9621;48.690;9.466;2023-03-01T04:30:49;39.27;;;20.97;;
18973;SDS011;9621;48.690;9.466;2023-03-01T04:33:18;37.83;;;21.07;;
18973;SDS011;9621;48.690;9.466;2023-03-01T04:35:45;41.27;;;20.77;;
18973;SDS011;9621;48.690;9.466;2023-03-01T04:38:14;46.17;;;22.77;;
18973;SDS011;9621;48.690;9.466;2023-03-01T04:40:42;37.50;;;21.27;;
18973;SDS011;9621;48.690;9.466;2023-03-01T04:43:09;42.60;;;22.43;;
18973;SDS011;9621;48.690;9.466;2023-03-01T04:45:42;42.57;;;23.07;;
18973;SDS011;9621;48.690;9.466;2023-03-01T04:48:13;38.30;;;21.77;;
18973;SDS011;9621;48.690;9.466;2023-03-01T04:50:47;40.67;;;22.30;;
18973;SDS011;9621;48.690;9.466;2023-03-01T04:53:14;45.30;;;23.20;;
18973;SDS011;9621;48.690;9.466;2023-03-01T04:55:43;38.33;;;21.37;;
18973;SDS011;9621;48.690;9.466;2023-03-01T04:58:10;37.73;;;20.90;;
18973;SDS011;9621;48.690;9.466;2023-03-01T05:00:43;37.40;;;20.50;;
18973;SDS011;9621;48.690;9.466;2023-03-01T05:03:12;38.30;;;21.43;;
18973;SDS011;9621;48.690;9.466;2023-03-01T05:05:45;40.97;;;21.47;;
18973;SDS011;9621;48.690;9.466;2023-03-01T05:08:17;42.53;;;23.17;;
18973;SDS011;9621;48.690;9.466;2023-03-01T05:10:48;40.13;;;22.47;;
18973;SDS011;9621;48.690;9.466;2023-03-01T05:13:20;37.80;;;22.33;;
18973;SDS011;9621;48.690;9.466;2023-03-01T05:15:47;42.00;;;22.77;;
18973;SDS011;9621;48.690;9.466;2023-03-01T05:18:20;41.77;;;22.30;;
18973;SDS011;9621;48.690;9.466;2023-03-01T05:21:03;40.67;;;21.63;;
18973;SDS011;9621;48.690;9.466;2023-03-01T05:23:38;37.57;;;22.20;;
18973;SDS011;9621;48.690;9.466;2023-03-01T05:26:09;38.07;;;21.00;;
18973;SDS011;9621;48.690;9.466;2023-03-01T05:28:47;39.23;;;21.60;;
18973;SDS011;9621;48.690;9.466;2023-03-01T05:31:21;35.57;;;21.40;;
18973;SDS011;9621;48.690;9.466;2023-03-01T05:33:57;38.13;;;21.50;;
18973;SDS011;9621;48.690;9.466;2023-03-01T05:36:30;42.20;;;22.13;;
18973;SDS011;9621;48.690;9.466;2023-03-01T05:38:58;41.13;;;21.87;;
18973;SDS011;9621;48.690;9.466;2023-03-01T05:41:31;41.53;;;22.00;;
18973;SDS011;9621;48.690;9.466;2023-03-01T05:43:58;34.60;;;20.03;;
18973;SDS011;9621;48.690;9.466;2023-03-01T05:46:25;42.60;;;23.33;;
18973;SDS011;9621;48.690;9.466;2023-03-01T05:48:54;41.73;;;23.47;;
18973;SDS011;9621;48.690;9.466;2023-03-01T05:51:22;39.77;;;22.57;;
18973;SDS011;9621;48.690;9.466;2023-03-01T06:01:53;42.30;;;22.27;;
18973;SDS011;9621;48.690;9.466;2023-03-01T06:04:21;37.53;;;21.47;;
18973;SDS011;9621;48.690;9.466;2023-03-01T06:06:57;39.73;;;22.93;;
18973;SDS011;9621;48.690;9.466;2023-03-01T06:09:24;41.90;;;22.73;;
18973;SDS011;9621;48.690;9.466;2023-03-01T06:11:52;39.53;;;22.27;;
18973;SDS011;9621;48.690;9.466;2023-03-01T06:14:19;42.87;;;22.30;;
18973;SDS011;9621;48.690;9.466;2023-03-01T06:16:46;40.60;;;21.67;;
18973;SDS011;9621;48.690;9.466;2023-03-01T06:19:15;40.40;;;22.63;;
18973;SDS011;9621;48.690;9.466;2023-03-01T06:21:44;38.27;;;21.50;;
18973;SDS011;9621;48.690;9.466;2023-03-01T06:24:11;39.47;;;21.83;;
18973;SDS011;9621;48.690;9.466;2023-03-01T06:26:48;42.93;;;21.87;;
18973;SDS011;9621;48.690;9.466;2023-03-01T06:29:15;38.83;;;21.67;;
18973;SDS011;9621;48.690;9.466;2023-03-01T06:31:45;40.37;;;22.43;;
18973;SDS011;9621;48.690;9.466;2023-03-01T06:34:14;39.70;;;21.57;;
18973;SDS011;9621;48.690;9.466;2023-03-01T06:36:42;44.80;;;22.03;;
18973;SDS011;9621;48.690;9.466;2023-03-01T06:39:14;40.67;;;22.47;;
18973;SDS011;9621;48.690;9.466;2023-03-01T06:41:43;40.80;;;22.17;;
18973;SDS011;9621;48.690;9.466;2023-03-01T06:44:13;47.70;;;22.77;;
18973;SDS011;9621;48.690;9.466;2023-03-01T06:46:40;37.87;;;21.37;;
18973;SDS011;9621;48.690;9.466;2023-03-01T06:49:07;39.50;;;21.90;;
18973;SDS011;9621;48.690;9.466;2023-03-01T06:51:49;39.00;;;21.97;;
18973;SDS011;9621;48.690;9.466;2023-03-01T06:54:16;41.77;;;21.63;;
18973;SDS011;9621;48.690;9.466;2023-03-01T06:56:47;39.13;;;23.00;;
18973;SDS011;9621;48.690;9.466;2023-03-01T06:59:14;41.77;;;22.43;;
18973;SDS011;9621;48.690;9.466;2023-03-01T07:01:42;36.80;;;21.23;;
18973;SDS011;9621;48.690;9.466;2023-03-01T07:04:09;39.63;;;21.43;;
18973;SDS011;9621;48.690;9.466;2023-03-01T07:06:36;38.47;;;21.53;;
18973;SDS011;9621;48.690;9.466;2023-03-01T07:09:04;40.13;;;21.90;;
18973;SDS011;9621;48.690;9.466;2023-03-01T07:11:31;41.37;;;21.90;;
18973;SDS011;9621;48.690;9.466;2023-03-01T07:13:58;32.73;;;20.70;;
18973;SDS011;9621;48.690;9.466;2023-03-01T07:16:25;39.47;;;20.30;;
18973;SDS011;9621;48.690;9.466;2023-03-01T07:18:52;37.47;;;19.90;;
18973;SDS011;9621;48.690;9.466;2023-03-01T07:21:20;32.13;;;19.87;;
18973;SDS011;9621;48.690;9.466;2023-03-01T07:23:47;33.83;;;20.03;;
18973;SDS011;9621;48.690;9.466;2023-03-01T07:26:16;34.13;;;20.77;;
18973;SDS011;9621;48.690;9.466;2023-03-01T07:28:43;32.83;;;19.60;;
18973;SDS011;9621;48.690;9.466;2023-03-01T07:31:10;35.67;;;20.57;;
18973;SDS011;9621;48.690;9.466;2023-03-01T07:33:37;39.30;;;21.63;;
18973;SDS011;9621;48.690;9.466;2023-03-01T07:36:05;33.33;;;20.47;;
18973;SDS011;9621;48.690;9.466;2023-03-01T07:38:32;34.00;;;20.90;;
18973;SDS011;9621;48.690;9.466;2023-03-01T07:41:00;34.37;;;19.97;;
18973;SDS011;9621;48.690;9.466;2023-03-01T07:43:32;33.83;;;19.53;;
18973;SDS011;9621;48.690;9.466;2023-03-01T07:46:01;29.77;;;19.70;;
18973;SDS011;9621;48.690;9.466;2023-03-01T07:48:29;33.00;;;20.47;;
18973;SDS011;9621;48.690;9.466;2023-03-01T07:50:57;33.23;;;20.10;;
18973;SDS011;9621;48.690;9.466;2023-03-01T07:53:25;34.73;;;20.27;;
18973;SDS011;9621;48.690;9.466;2023-03-01T07:55:59;35.37;;;20.07;;
18973;SDS011;9621;48.690;9.466;2023-03-01T07:58:27;34.57;;;19.93;;
18973;SDS011;9621;48.690;9.466;2023-03-01T08:00:55;35.97;;;20.07;;
18973;SDS011;9621;48.690;9.466;2023-03-01T08:03:22;34.37;;;20.57;;
18973;SDS011;9621;48.690;9.466;2023-03-01T08:05:49;36.07;;;21.50;;
18973;SDS011;9621;48.690;9.466;2023-03-01T08:08:16;34.53;;;20.37;;
18973;SDS011;9621;48.690;9.466;2023-03-01T08:10:43;34.13;;;20.27;;
18973;SDS011;9621;48.690;9.466;2023-03-01T08:13:10;33.90;;;20.10;;
18973;SDS011;9621;48.690;9.466;2023-03-01T08:15:37;33.50;;;20.57;;
18973;SDS011;9621;48.690;9.466;2023-03-01T08:18:05;34.83;;;20.90;;
18973;SDS011;9621;48.690;9.466;2023-03-01T08:20:32;33.50;;;20.23;;
18973;SDS011;9621;48.690;9.466;2023-03-01T08:23:00;33.63;;;20.50;;
18973;SDS011;9621;48.690;9.466;2023-03-01T08:25:26;33.07;;;20.63;;
18973;SDS011;9621;48.690;9.466;2023-03-01T08:27:54;34.60;;;20.23;;
18973;SDS011;9621;48.690;9.466;2023-03-01T08:30:20;36.17;;;20.70;;
18973;SDS011;9621;48.690;9.466;2023-03-01T08:32:49;39.67;;;20.10;;
18973;SDS011;9621;48.690;9.466;2023-03-01T08:35:18;33.90;;;19.13;;
18973;SDS011;9621;48.690;9.466;2023-03-01T08:37:46;34.63;;;20.70;;
18973;SDS011;9621;48.690;9.466;2023-03-01T08:40:13;37.27;;;19.93;;
18973;SDS011;9621;48.690;9.466;2023-03-01T08:42:41;30.13;;;19.00;;
18973;SDS011;9621;48.690;9.466;2023-03-01T08:45:09;29.17;;;19.50;;
18973;SDS011;9621;48.690;9.466;2023-03-01T08:47:37;30.87;;;20.13;;
18973;SDS011;9621;48.690;9.466;2023-03-01T08:50:04;33.87;;;20.50;;
18973;SDS011;9621;48.690;9.466;2023-03-01T08:52:33;32.67;;;19.90;;
18973;SDS011;9621;48.690;9.466;2023-03-01T08:55:00;60.43;;;20.47;;
18973;SDS011;9621;48.690;9.466;2023-03-01T08:57:27;33.27;;;19.33;;
18973;SDS011;9621;48.690;9.466;2023-03-01T08:59:54;34.27;;;20.43;;
18973;SDS011;9621;48.690;9.466;2023-03-01T09:02:21;32.43;;;20.40;;
18973;SDS011;9621;48.690;9.466;2023-03-01T09:04:48;31.47;;;19.67;;
18973;SDS011;9621;48.690;9.466;2023-03-01T09:07:16;34.17;;;20.20;;
18973;SDS011;9621;48.690;9.466;2023-03-01T09:09:44;36.30;;;19.67;;
18973;SDS011;9621;48.690;9.466;2023-03-01T09:12:11;34.73;;;20.87;;
18973;SDS011;9621;48.690;9.466;2023-03-01T09:14:38;34.90;;;20.50;;
18973;SDS011;9621;48.690;9.466;2023-03-01T09:17:06;32.83;;;20.00;;
18973;SDS011;9621;48.690;9.466;2023-03-01T09:19:33;32.93;;;19.30;;
18973;SDS011;9621;48.690;9.466;2023-03-01T09:22:00;35.00;;;20.80;;
18973;SDS011;9621;48.690;9.466;2023-03-01T09:24:29;39.63;;;21.20;;
18973;SDS011;9621;48.690;9.466;2023-03-01T09:26:57;32.60;;;21.03;;
18973;SDS011;9621;48.690;9.466;2023-03-01T09:29:24;33.53;;;21.00;;
18973;SDS011;9621;48.690;9.466;2023-03-01T09:31:52;37.73;;;20.70;;
18973;SDS011;9621;48.690;9.466;2023-03-01T09:34:20;38.00;;;21.70;;
18973;SDS011;9621;48.690;9.466;2023-03-01T09:36:49;32.17;;;20.03;;
18973;SDS011;9621;48.690;9.466;2023-03-01T09:39:16;31.40;;;20.10;;
18973;SDS011;9621;48.690;9.466;2023-03-01T09:41:46;34.03;;;20.77;;
18973;SDS011;9621;48.690;9.466;2023-03-01T09:44:21;36.03;;;20.67;;
18973;SDS011;9621;48.690;9.466;2023-03-01T09:46:56;32.70;;;20.17;;
18973;SDS011;9621;48.690;9.466;2023-03-01T09:49:24;34.33;;;19.93;;
18973;SDS011;9621;48.690;9.466;2023-03-01T09:51:58;29.93;;;20.33;;
18973;SDS011;9621;48.690;9.466;2023-03-01T09:54:27;30.92;;;20.20;;
18973;SDS011;9621;48.690;9.466;2023-03-01T09:57:01;34.27;;;20.30;;
18973;SDS011;9621;48.690;9.466;2023-03-01T09:59:36;33.63;;;20.47;;
18973;SDS011;9621;48.690;9.466;2023-03-01T10:02:23;34.57;;;19.10;;
18973;SDS011;9621;48.690;9.466;2023-03-01T10:04:58;30.20;;;20.42;;
18973;SDS011;9621;48.690;9.466;2023-03-01T10:07:38;31.80;;;20.83;;
18973;SDS011;9621;48.690;9.466;2023-03-01T10:10:14;32.50;;;19.30;;
18973;SDS011;9621;48.690;9.466;2023-03-01T10:12:47;35.90;;;19.63;;
18973;SDS011;9621;48.690;9.466;2023-03-01T10:15:16;32.33;;;19.45;;
18973;SDS011;9621;48.690;9.466;2023-03-01T10:17:48;31.33;;;20.00;;
18973;SDS011;9621;48.690;9.466;2023-03-01T10:20:20;29.42;;;19.00;;
18973;SDS011;9621;48.690;9.466;2023-03-01T10:22:48;30.13;;;19.25;;
18973;SDS011;9621;48.690;9.466;2023-03-01T10:25:28;28.35;;;19.00;;
18973;SDS011;9621;48.690;9.466;2023-03-01T10:28:10;27.55;;;18.08;;
18973;SDS011;9621;48.690;9.466;2023-03-01T10:30:45;28.27;;;18.48;;
18973;SDS011;9621;48.690;9.466;2023-03-01T10:33:14;29.13;;;18.48;;
18973;SDS011;9621;48.690;9.466;2023-03-01T10:35:45;30.35;;;19.42;;
18973;SDS011;9621;48.690;9.466;2023-03-01T10:38:13;29.60;;;19.25;;
18973;SDS011;9621;48.690;9.466;2023-03-01T10:40:50;28.52;;;18.85;;
18973;SDS011;9621;48.690;9.466;2023-03-01T10:43:19;27.70;;;18.25;;
18973;SDS011;9621;48.690;9.466;2023-03-01T10:45:48;28.42;;;17.20;;
18973;SDS011;9621;48.690;9.466;2023-03-01T10:48:16;24.90;;;16.65;;
18973;SDS011;9621;48.690;9.466;2023-03-01T10:50:46;23.27;;;15.27;;
18973;SDS011;9621;48.690;9.466;2023-03-01T10:53:22;24.92;;;16.02;;
18973;SDS011;9621;48.690;9.466;2023-03-01T10:56:02;25.10;;;16.08;;
18973;SDS011;9621;48.690;9.466;2023-03-01T10:58:31;23.83;;;16.63;;
18973;SDS011;9621;48.690;9.466;2023-03-01T11:01:05;22.90;;;15.25;;
18973;SDS011;9621;48.690;9.466;2023-03-01T11:04:03;23.25;;;16.20;;
18973;SDS011;9621;48.690;9.466;2023-03-01T11:06:37;29.40;;;17.35;;
18973;SDS011;9621;48.690;9.466;2023-03-01T11:09:13;27.25;;;15.82;;
18973;SDS011;9621;48.690;9.466;2023-03-01T11:11:40;21.92;;;15.95;;
18973;SDS011;9621;48.690;9.466;2023-03-01T11:14:13;25.40;;;15.60;;
18973;SDS011;9621;48.690;9.466;2023-03-01T11:16:45;25.00;;;15.85;;
18973;SDS011;9621;48.690;9.466;2023-03-01T11:19:18;22.83;;;15.43;;
18973;SDS011;9621;48.690;9.466;2023-03-01T11:21:57;27.63;;;15.98;;
18973;SDS011;9621;48.690;9.466;2023-03-01T11:24:30;21.75;;;14.63;;
18973;SDS011;9621;48.690;9.466;2023-03-01T11:27:04;22.40;;;14.88;;
18973;SDS011;9621;48.690;9.466;2023-03-01T11:29:43;24.33;;;16.75;;
18973;SDS011;9621;48.690;9.466;2023-03-01T11:32:13;24.33;;;16.15;;
18973;SDS011;9621;48.690;9.466;2023-03-01T11:34:47;23.77;;;16.00;;
18973;SDS011;9621;48.690;9.466;2023-03-01T11:37:22;24.23;;;16.52;;
18973;SDS011;9621;48.690;9.466;2023-03-01T11:39:59;22.23;;;16.00;;
18973;SDS011;9621;48.690;9.466;2023-03-01T11:42:40;24.88;;;16.02;;
18973;SDS011;9621;48.690;9.466;2023-03-01T11:45:14;28.77;;;15.82;;
18973;SDS011;9621;48.690;9.466;2023-03-01T11:47:50;25.65;;;16.48;;
18973;SDS011;9621;48.690;9.466;2023-03-01T11:50:34;23.88;;;15.23;;
18973;SDS011;9621;48.690;9.466;2023-03-01T11:56:10;25.65;;;15.45;;
18973;SDS011;9621;48.690;9.466;2023-03-01T11:58:55;23.02;;;15.27;;
18973;SDS011;9621;48.690;9.466;2023-03-01T12:01:42;24.23;;;16.80;;
18973;SDS011;9621;48.690;9.466;2023-03-01T12:04:30;24.67;;;14.88;;
18973;SDS011;9621;48.690;9.466;2023-03-01T12:07:24;22.15;;;15.40;;
18973;SDS011;9621;48.690;9.466;2023-03-01T12:10:05;24.90;;;16.58;;
18973;SDS011;9621;48.690;9.466;2023-03-01T12:15:58;26.45;;;16.42;;
18973;SDS011;9621;48.690;9.466;2023-03-01T12:18:48;22.05;;;15.07;;
18973;SDS011;9621;48.690;9.466;2023-03-01T12:21:42;22.60;;;16.00;;
18973;SDS011;9621;48.690;9.466;2023-03-01T12:24:24;20.80;;;15.00;;
18973;SDS011;9621;48.690;9.466;2023-03-01T12:27:12;21.48;;;15.20;;
18973;SDS011;9621;48.690;9.466;2023-03-01T12:29:57;25.85;;;15.95;;
18973;SDS011;9621;48.690;9.466;2023-03-01T12:32:36;24.95;;;17.02;;
18973;SDS011;9621;48.690;9.466;2023-03-01T12:35:23;23.48;;;16.13;;
18973;SDS011;9621;48.690;9.466;2023-03-01T12:38:06;21.58;;;14.13;;
18973;SDS011;9621;48.690;9.466;2023-03-01T12:40:46;21.75;;;14.70;;
18973;SDS011;9621;48.690;9.466;2023-03-01T12:43:30;24.30;;;15.68;;
18973;SDS011;9621;48.690;9.466;2023-03-01T12:46:10;23.23;;;15.18;;
18973;SDS011;9621;48.690;9.466;2023-03-01T12:48:50;22.20;;;15.32;;
18973;SDS011;9621;48.690;9.466;2023-03-01T12:51:25;23.73;;;16.38;;
18973;SDS011;9621;48.690;9.466;2023-03-01T12:54:05;26.75;;;16.20;;
18973;SDS011;9621;48.690;9.466;2023-03-01T12:56:40;23.98;;;15.65;;
18973;SDS011;9621;48.690;9.466;2023-03-01T12:59:11;24.65;;;14.93;;
18973;SDS011;9621;48.690;9.466;2023-03-01T13:01:45;20.63;;;14.13;;
18973;SDS011;9621;48.690;9.466;2023-03-01T13:07:16;22.92;;;15.85;;
18973;SDS011;9621;48.690;9.466;2023-03-01T13:09:59;20.48;;;14.98;;
18973;SDS011;9621;48.690;9.466;2023-03-01T13:12:49;22.88;;;15.82;;
18973;SDS011;9621;48.690;9.466;2023-03-01T13:15:26;23.65;;;15.18;;
18973;SDS011;9621;48.690;9.466;2023-03-01T13:17:55;21.67;;;15.00;;
18973;SDS011;9621;48.690;9.466;2023-03-01T13:20:24;25.80;;;15.63;;
18973;SDS011;9621;48.690;9.466;2023-03-01T13:23:01;21.27;;;14.73;;
18973;SDS011;9621;48.690;9.466;2023-03-01T13:25:35;20.45;;;14.57;;
18973;SDS011;9621;48.690;9.466;2023-03-01T13:28:47;20.90;;;14.25;;
18973;SDS011;9621;48.690;9.466;2023-03-01T13:37:31;20.92;;;14.00;;
18973;SDS011;9621;48.690;9.466;2023-03-01T13:40:01;19.35;;;13.27;;
18973;SDS011;9621;48.690;9.466;2023-03-01T13:42:36;21.17;;;14.48;;
18973;SDS011;9621;48.690;9.466;2023-03-01T13:45:24;22.45;;;14.43;;
18973;SDS011;9621;48.690;9.466;2023-03-01T13:48:04;19.83;;;13.65;;
18973;SDS011;9621;48.690;9.466;2023-03-01T13:50:38;21.33;;;14.55;;
18973;SDS011;9621;48.690;9.466;2023-03-01T13:53:12;21.42;;;14.05;;
18973;SDS011;9621;48.690;9.466;2023-03-01T13:55:44;20.90;;;13.38;;
18973;SDS011;9621;48.690;9.466;2023-03-01T13:58:22;24.42;;;13.75;;
18973;SDS011;9621;48.690;9.466;2023-03-01T14:00:55;21.77;;;13.95;;
18973;SDS011;9621;48.690;9.466;2023-03-01T14:03:23;23.00;;;15.52;;
18973;SDS011;9621;48.690;9.466;2023-03-01T14:05:58;22.73;;;15.75;;
18973;SDS011;9621;48.690;9.466;2023-03-01T14:08:32;21.20;;;14.45;;
18973;SDS011;9621;48.690;9.466;2023-03-01T14:11:24;23.38;;;15.80;;
18973;SDS011;9621;48.690;9.466;2023-03-01T14:14:06;26.13;;;15.70;;
18973;SDS011;9621;48.690;9.466;2023-03-01T14:16:55;27.58;;;16.98;;
18973;SDS011;9621;48.690;9.466;2023-03-01T14:19:31;32.75;;;17.70;;
18973;SDS011;9621;48.690;9.466;2023-03-01T14:21:59;29.45;;;17.35;;
18973;SDS011;9621;48.690;9.466;2023-03-01T14:24:33;24.60;;;16.10;;
18973;SDS011;9621;48.690;9.466;2023-03-01T14:27:04;25.98;;;17.38;;
18973;SDS011;9621;48.690;9.466;2023-03-01T14:29:37;32.83;;;18.57;;
18973;SDS011;9621;48.690;9.466;2023-03-01T14:32:08;29.40;;;18.37;;
18973;SDS011;9621;48.690;9.466;2023-03-01T14:34:38;29.23;;;17.53;;
18973;SDS011;9621;48.690;9.466;2023-03-01T14:37:10;32.70;;;18.13;;
18973;SDS011;9621;48.690;9.466;2023-03-01T14:39:38;30.70;;;18.17;;
18973;SDS011;9621;48.690;9.466;2023-03-01T14:42:05;28.77;;;17.77;;
18973;SDS011;9621;48.690;9.466;2023-03-01T14:44:32;27.17;;;17.33;;
18973;SDS011;9621;48.690;9.466;2023-03-01T14:47:04;29.40;;;19.17;;
18973;SDS011;9621;48.690;9.466;2023-03-01T14:49:31;34.43;;;18.70;;
18973;SDS011;9621;48.690;9.466;2023-03-01T14:52:02;28.10;;;18.33;;
18973;SDS011;9621;48.690;9.466;2023-03-01T14:54:36;35.83;;;18.77;;
18973;SDS011;9621;48.690;9.466;2023-03-01T14:57:12;29.00;;;18.67;;
18973;SDS011;9621;48.690;9.466;2023-03-01T14:59:42;28.73;;;17.73;;
18973;SDS011;9621;48.690;9.466;2023-03-01T15:02:11;34.57;;;18.87;;
18973;SDS011;9621;48.690;9.466;2023-03-01T15:04:42;28.13;;;16.90;;
18973;SDS011;9621;48.690;9.466;2023-03-01T15:07:11;31.17;;;18.07;;
18973;SDS011;9621;48.690;9.466;2023-03-01T15:09:40;29.07;;;18.03;;
18973;SDS011;9621;48.690;9.466;2023-03-01T15:12:24;26.60;;;16.50;;
18973;SDS011;9621;48.690;9.466;2023-03-01T15:15:19;31.37;;;17.67;;
18973;SDS011;9621;48.690;9.466;2023-03-01T15:17:52;29.53;;;18.00;;
18973;SDS011;9621;48.690;9.466;2023-03-01T15:20:22;29.57;;;16.73;;
18973;SDS011;9621;48.690;9.466;2023-03-01T15:22:52;30.30;;;17.60;;
18973;SDS011;9621;48.690;9.466;2023-03-01T15:25:21;30.33;;;16.53;;
18973;SDS011;9621;48.690;9.466;2023-03-01T15:27:50;28.47;;;17.13;;
18973;SDS011;9621;48.690;9.466;2023-03-01T15:30:20;29.23;;;17.47;;
18973;SDS011;9621;48.690;9.466;2023-03-01T15:32:59;30.10;;;17.07;;
18973;SDS011;9621;48.690;9.466;2023-03-01T15:35:46;27.10;;;16.80;;
18973;SDS011;9621;48.690;9.466;2023-03-01T15:38:23;27.37;;;17.47;;